sensor_id;sensor_type;location;lat;lon;timestamp;temperature;humidity
216;HTU21D;70668;48.81286795;9.14184224;2023-09-19T00:02:05;18.59;71.38
216;HTU21D;70668;48.81286795;9.14184224;2023-09-19T00:04:34;18.62;71.80
216;HTU21D;70668;48.81286795;9.14184224;2023-09-19T00:07:05;18.49;71.83
216;HTU21D;70668;48.81286795;9.14184224;2023-09-19T00:09:34;18.44;71.54
216;HTU21D;70668;48.81286795;9.14184224;2023-09-19T00:12:05;18.18;72.74
216;HTU21D;70668;48.81286795;9.14184224;2023-09-19T00:14:37;18.03;73.54
216;HTU21D;70668;48.81286795;9.14184224;2023-09-19T00:17:06;18.11;73.73
216;HTU21D;70668;48.81286795;9.14184224;2023-09-19T00:19:35;18.15;73.25
216;HTU21D;70668;48.81286795;9.14184224;2023-09-19T00:22:03;18.24;73.14
216;HTU21D;70668;48.81286795;9.14184224;2023-09-19T00:24:32;18.19;72.87
216;HTU21D;70668;48.81286795;9.14184224;2023-09-19T00:27:01;18.33;72.61
216;HTU21D;70668;48.81286795;9.14184224;2023-09-19T00:29:31;18.25;72.60
216;HTU21D;70668;48.81286795;9.14184224;2023-09-19T00:32:02;18.26;72.52
216;HTU21D;70668;48.81286795;9.14184224;2023-09-19T00:34:31;18.19;72.64
216;HTU21D;70668;48.81286795;9.14184224;2023-09-19T00:37:00;18.36;72.32
216;HTU21D;70668;48.81286795;9.14184224;2023-09-19T00:39:29;18.50;71.83
216;HTU21D;70668;48.81286795;9.14184224;2023-09-19T00:41:59;18.32;71.93
216;HTU21D;70668;48.81286795;9.14184224;2023-09-19T00:44:30;18.15;73.22
216;HTU21D;70668;48.81286795;9.14184224;2023-09-19T00:47:03;18.40;72.31
216;HTU21D;70668;48.81286795;9.14184224;2023-09-19T00:49:32;18.26;72.19
216;HTU21D;70668;48.81286795;9.14184224;2023-09-19T00:52:01;18.26;72.56
216;HTU21D;70668;48.81286795;9.14184224;2023-09-19T00:54:30;18.32;72.12
216;HTU21D;70668;48.81286795;9.14184224;2023-09-19T00:56:59;18.32;72.80
216;HTU21D;70668;48.81286795;9.14184224;2023-09-19T00:59:28;18.41;72.24
216;HTU21D;70668;48.81286795;9.14184224;2023-09-19T01:01:57;18.32;72.17
216;HTU21D;70668;48.81286795;9.14184224;2023-09-19T01:04:28;18.20;73.00
216;HTU21D;70668;48.81286795;9.14184224;2023-09-19T01:06:57;18.30;72.91
216;HTU21D;70668;48.81286795;9.14184224;2023-09-19T01:09:26;18.44;72.51
216;HTU21D;70668;48.81286795;9.14184224;2023-09-19T01:11:58;18.36;72.24
216;HTU21D;70668;48.81286795;9.14184224;2023-09-19T01:14:36;18.28;72.31
216;HTU21D;70668;48.81286795;9.14184224;2023-09-19T01:17:13;18.12;72.92
216;HTU21D;70668;48.81286795;9.14184224;2023-09-19T01:20:06;18.29;72.54
216;HTU21D;70668;48.81286795;9.14184224;2023-09-19T01:22:47;18.13;72.84
216;HTU21D;70668;48.81286795;9.14184224;2023-09-19T01:28:23;17.98;73.71
216;HTU21D;70668;48.81286795;9.14184224;2023-09-19T01:31:08;17.93;73.41
216;HTU21D;70668;48.81286795;9.14184224;2023-09-19T01:33:56;18.08;73.07
216;HTU21D;70668;48.81286795;9.14184224;2023-09-19T01:36:31;18.29;71.55
216;HTU21D;70668;48.81286795;9.14184224;2023-09-19T01:39:05;18.20;72.16
216;HTU21D;70668;48.81286795;9.14184224;2023-09-19T01:41:44;18.06;72.19
216;HTU21D;70668;48.81286795;9.14184224;2023-09-19T01:44:21;18.05;72.61
216;HTU21D;70668;48.81286795;9.14184224;2023-09-19T01:46:55;18.19;71.90
216;HTU21D;70668;48.81286795;9.14184224;2023-09-19T01:49:33;18.10;72.17
216;HTU21D;70668;48.81286795;9.14184224;2023-09-19T01:52:08;18.03;72.48
216;HTU21D;70668;48.81286795;9.14184224;2023-09-19T01:54:45;17.88;73.08
216;HTU21D;70668;48.81286795;9.14184224;2023-09-19T01:57:22;18.02;72.24
216;HTU21D;70668;48.81286795;9.14184224;2023-09-19T02:00:01;17.91;72.79
216;HTU21D;70668;48.81286795;9.14184224;2023-09-19T02:02:45;17.99;72.19
216;HTU21D;70668;48.81286795;9.14184224;2023-09-19T02:05:22;17.84;72.91
216;HTU21D;70668;48.81286795;9.14184224;2023-09-19T02:07:51;17.84;72.82
216;HTU21D;70668;48.81286795;9.14184224;2023-09-19T02:10:21;17.95;72.43
216;HTU21D;70668;48.81286795;9.14184224;2023-09-19T02:12:50;17.94;72.37
216;HTU21D;70668;48.81286795;9.14184224;2023-09-19T02:15:19;17.97;71.94
216;HTU21D;70668;48.81286795;9.14184224;2023-09-19T02:17:50;17.94;72.03
216;HTU21D;70668;48.81286795;9.14184224;2023-09-19T02:20:22;17.89;72.26
216;HTU21D;70668;48.81286795;9.14184224;2023-09-19T02:22:52;18.00;71.80
216;HTU21D;70668;48.81286795;9.14184224;2023-09-19T02:25:20;17.89;72.32
216;HTU21D;70668;48.81286795;9.14184224;2023-09-19T02:27:49;17.85;72.26
216;HTU21D;70668;48.81286795;9.14184224;2023-09-19T02:30:19;17.87;72.52
216;HTU21D;70668;48.81286795;9.14184224;2023-09-19T02:32:54;17.73;72.52
216;HTU21D;70668;48.81286795;9.14184224;2023-09-19T02:35:22;17.79;71.88
216;HTU21D;70668;48.81286795;9.14184224;2023-09-19T02:37:51;17.79;72.26
216;HTU21D;70668;48.81286795;9.14184224;2023-09-19T02:40:20;17.84;71.60
216;HTU21D;70668;48.81286795;9.14184224;2023-09-19T02:42:53;17.99;71.03
216;HTU21D;70668;48.81286795;9.14184224;2023-09-19T02:45:24;18.13;70.27
216;HTU21D;70668;48.81286795;9.14184224;2023-09-19T02:47:56;18.13;70.43
216;HTU21D;70668;48.81286795;9.14184224;2023-09-19T02:50:25;18.08;70.52
216;HTU21D;70668;48.81286795;9.14184224;2023-09-19T02:52:54;18.09;70.53
216;HTU21D;70668;48.81286795;9.14184224;2023-09-19T02:55:23;18.06;70.39
216;HTU21D;70668;48.81286795;9.14184224;2023-09-19T02:57:49;18.07;71.04
216;HTU21D;70668;48.81286795;9.14184224;2023-09-19T03:00:21;17.89;71.45
216;HTU21D;70668;48.81286795;9.14184224;2023-09-19T03:02:50;17.94;71.12
216;HTU21D;70668;48.81286795;9.14184224;2023-09-19T03:05:23;18.20;70.12
216;HTU21D;70668;48.81286795;9.14184224;2023-09-19T03:07:52;17.89;71.54
216;HTU21D;70668;48.81286795;9.14184224;2023-09-19T03:10:21;17.99;70.96
216;HTU21D;70668;48.81286795;9.14184224;2023-09-19T03:12:51;18.09;70.92
216;HTU21D;70668;48.81286795;9.14184224;2023-09-19T03:15:20;18.04;71.21
216;HTU21D;70668;48.81286795;9.14184224;2023-09-19T03:17:51;18.24;70.51
216;HTU21D;70668;48.81286795;9.14184224;2023-09-19T03:20:25;18.07;70.68
216;HTU21D;70668;48.81286795;9.14184224;2023-09-19T03:22:53;17.96;71.51
216;HTU21D;70668;48.81286795;9.14184224;2023-09-19T03:25:23;17.98;71.66
216;HTU21D;70668;48.81286795;9.14184224;2023-09-19T03:27:52;17.81;71.77
216;HTU21D;70668;48.81286795;9.14184224;2023-09-19T03:30:22;17.95;71.58
216;HTU21D;70668;48.81286795;9.14184224;2023-09-19T03:32:52;17.93;71.64
216;HTU21D;70668;48.81286795;9.14184224;2023-09-19T03:35:21;18.07;71.39
216;HTU21D;70668;48.81286795;9.14184224;2023-09-19T03:37:52;18.19;71.37
216;HTU21D;70668;48.81286795;9.14184224;2023-09-19T03:40:21;18.59;69.94
216;HTU21D;70668;48.81286795;9.14184224;2023-09-19T03:42:51;18.40;69.42
216;HTU21D;70668;48.81286795;9.14184224;2023-09-19T03:45:20;18.22;70.57
216;HTU21D;70668;48.81286795;9.14184224;2023-09-19T03:47:51;18.28;70.29
216;HTU21D;70668;48.81286795;9.14184224;2023-09-19T03:50:22;18.00;71.54
216;HTU21D;70668;48.81286795;9.14184224;2023-09-19T03:52:58;17.94;71.87
216;HTU21D;70668;48.81286795;9.14184224;2023-09-19T03:55:27;18.03;71.64
216;HTU21D;70668;48.81286795;9.14184224;2023-09-19T03:57:56;18.15;71.30
216;HTU21D;70668;48.81286795;9.14184224;2023-09-19T04:00:24;18.36;71.00
216;HTU21D;70668;48.81286795;9.14184224;2023-09-19T04:02:55;18.23;72.59
216;HTU21D;70668;48.81286795;9.14184224;2023-09-19T04:05:24;18.44;73.86
216;HTU21D;70668;48.81286795;9.14184224;2023-09-19T04:07:53;18.18;76.49
216;HTU21D;70668;48.81286795;9.14184224;2023-09-19T04:10:24;17.96;78.07
216;HTU21D;70668;48.81286795;9.14184224;2023-09-19T04:12:54;18.29;76.06
216;HTU21D;70668;48.81286795;9.14184224;2023-09-19T04:15:24;18.13;76.76
216;HTU21D;70668;48.81286795;9.14184224;2023-09-19T04:17:53;18.23;78.07
216;HTU21D;70668;48.81286795;9.14184224;2023-09-19T04:20:22;18.19;80.20
216;HTU21D;70668;48.81286795;9.14184224;2023-09-19T04:22:51;17.88;81.33
216;HTU21D;70668;48.81286795;9.14184224;2023-09-19T04:25:20;17.80;81.16
216;HTU21D;70668;48.81286795;9.14184224;2023-09-19T04:27:51;17.91;81.10
216;HTU21D;70668;48.81286795;9.14184224;2023-09-19T04:30:20;17.82;81.87
216;HTU21D;70668;48.81286795;9.14184224;2023-09-19T04:32:48;17.85;82.36
216;HTU21D;70668;48.81286795;9.14184224;2023-09-19T04:35:19;17.79;82.20
216;HTU21D;70668;48.81286795;9.14184224;2023-09-19T04:37:47;17.72;82.87
216;HTU21D;70668;48.81286795;9.14184224;2023-09-19T04:40:16;17.63;83.01
216;HTU21D;70668;48.81286795;9.14184224;2023-09-19T04:42:45;17.79;82.29
216;HTU21D;70668;48.81286795;9.14184224;2023-09-19T04:45:24;17.61;82.51
216;HTU21D;70668;48.81286795;9.14184224;2023-09-19T04:47:53;17.92;81.52
216;HTU21D;70668;48.81286795;9.14184224;2023-09-19T04:50:22;17.83;82.35
216;HTU21D;70668;48.81286795;9.14184224;2023-09-19T04:52:52;17.88;82.67
216;HTU21D;70668;48.81286795;9.14184224;2023-09-19T04:55:20;18.03;81.59
216;HTU21D;70668;48.81286795;9.14184224;2023-09-19T04:57:50;17.90;83.23
216;HTU21D;70668;48.81286795;9.14184224;2023-09-19T05:00:20;17.51;84.93
216;HTU21D;70668;48.81286795;9.14184224;2023-09-19T05:02:54;17.51;86.19
216;HTU21D;70668;48.81286795;9.14184224;2023-09-19T05:05:23;17.72;83.92
216;HTU21D;70668;48.81286795;9.14184224;2023-09-19T05:07:53;17.55;86.27
216;HTU21D;70668;48.81286795;9.14184224;2023-09-19T05:10:22;17.39;86.72
216;HTU21D;70668;48.81286795;9.14184224;2023-09-19T05:12:53;17.47;87.72
216;HTU21D;70668;48.81286795;9.14184224;2023-09-19T05:15:21;17.74;85.66
216;HTU21D;70668;48.81286795;9.14184224;2023-09-19T05:17:52;17.65;86.19
216;HTU21D;70668;48.81286795;9.14184224;2023-09-19T05:20:21;17.69;86.58
216;HTU21D;70668;48.81286795;9.14184224;2023-09-19T05:22:58;17.93;83.59
216;HTU21D;70668;48.81286795;9.14184224;2023-09-19T05:25:28;17.45;86.99
216;HTU21D;70668;48.81286795;9.14184224;2023-09-19T05:27:58;17.47;84.79
216;HTU21D;70668;48.81286795;9.14184224;2023-09-19T05:30:29;17.30;86.29
216;HTU21D;70668;48.81286795;9.14184224;2023-09-19T05:33:00;17.33;88.85
216;HTU21D;70668;48.81286795;9.14184224;2023-09-19T05:35:30;17.13;90.82
216;HTU21D;70668;48.81286795;9.14184224;2023-09-19T05:37:58;17.31;91.31
216;HTU21D;70668;48.81286795;9.14184224;2023-09-19T05:40:27;17.41;90.82
216;HTU21D;70668;48.81286795;9.14184224;2023-09-19T05:42:55;17.04;89.76
216;HTU21D;70668;48.81286795;9.14184224;2023-09-19T05:45:24;16.77;87.25
216;HTU21D;70668;48.81286795;9.14184224;2023-09-19T05:47:53;16.67;88.82
216;HTU21D;70668;48.81286795;9.14184224;2023-09-19T05:50:32;16.78;91.45
216;HTU21D;70668;48.81286795;9.14184224;2023-09-19T05:53:02;16.93;91.37
216;HTU21D;70668;48.81286795;9.14184224;2023-09-19T05:55:30;16.75;89.18
216;HTU21D;70668;48.81286795;9.14184224;2023-09-19T05:57:59;16.73;86.77
216;HTU21D;70668;48.81286795;9.14184224;2023-09-19T06:00:29;16.71;86.36
216;HTU21D;70668;48.81286795;9.14184224;2023-09-19T06:02:58;16.45;85.21
216;HTU21D;70668;48.81286795;9.14184224;2023-09-19T06:05:28;15.68;88.06
216;HTU21D;70668;48.81286795;9.14184224;2023-09-19T06:07:59;15.47;89.79
216;HTU21D;70668;48.81286795;9.14184224;2023-09-19T06:10:33;15.68;89.15
216;HTU21D;70668;48.81286795;9.14184224;2023-09-19T06:13:02;15.77;90.92
216;HTU21D;70668;48.81286795;9.14184224;2023-09-19T06:15:31;15.78;89.21
216;HTU21D;70668;48.81286795;9.14184224;2023-09-19T06:18:01;15.58;89.74
216;HTU21D;70668;48.81286795;9.14184224;2023-09-19T06:20:30;15.72;90.63
216;HTU21D;70668;48.81286795;9.14184224;2023-09-19T06:23:03;15.95;90.68
216;HTU21D;70668;48.81286795;9.14184224;2023-09-19T06:25:31;15.84;89.78
216;HTU21D;70668;48.81286795;9.14184224;2023-09-19T06:28:00;15.72;89.79
216;HTU21D;70668;48.81286795;9.14184224;2023-09-19T06:30:31;16.00;90.08
216;HTU21D;70668;48.81286795;9.14184224;2023-09-19T06:33:00;15.93;88.49
216;HTU21D;70668;48.81286795;9.14184224;2023-09-19T06:35:32;16.20;89.82
216;HTU21D;70668;48.81286795;9.14184224;2023-09-19T06:38:05;16.62;86.49
216;HTU21D;70668;48.81286795;9.14184224;2023-09-19T06:40:34;16.65;85.87
216;HTU21D;70668;48.81286795;9.14184224;2023-09-19T06:43:04;16.67;88.60
216;HTU21D;70668;48.81286795;9.14184224;2023-09-19T06:45:34;16.39;86.52
216;HTU21D;70668;48.81286795;9.14184224;2023-09-19T06:48:03;16.67;87.64
216;HTU21D;70668;48.81286795;9.14184224;2023-09-19T06:50:32;16.63;84.27
216;HTU21D;70668;48.81286795;9.14184224;2023-09-19T06:53:04;16.64;85.71
216;HTU21D;70668;48.81286795;9.14184224;2023-09-19T06:55:32;16.80;85.06
216;HTU21D;70668;48.81286795;9.14184224;2023-09-19T06:58:02;16.98;84.19
216;HTU21D;70668;48.81286795;9.14184224;2023-09-19T07:00:31;16.92;84.69
216;HTU21D;70668;48.81286795;9.14184224;2023-09-19T07:03:03;17.13;83.57
216;HTU21D;70668;48.81286795;9.14184224;2023-09-19T07:05:34;16.92;83.07
216;HTU21D;70668;48.81286795;9.14184224;2023-09-19T07:08:07;17.02;83.36
216;HTU21D;70668;48.81286795;9.14184224;2023-09-19T07:10:38;16.98;84.56
216;HTU21D;70668;48.81286795;9.14184224;2023-09-19T07:13:10;16.89;83.45
216;HTU21D;70668;48.81286795;9.14184224;2023-09-19T07:15:42;17.08;79.72
216;HTU21D;70668;48.81286795;9.14184224;2023-09-19T07:18:12;17.03;81.94
216;HTU21D;70668;48.81286795;9.14184224;2023-09-19T07:20:42;17.17;80.80
216;HTU21D;70668;48.81286795;9.14184224;2023-09-19T07:23:17;16.95;80.67
216;HTU21D;70668;48.81286795;9.14184224;2023-09-19T07:25:46;16.98;81.62
216;HTU21D;70668;48.81286795;9.14184224;2023-09-19T07:28:15;17.11;82.13
216;HTU21D;70668;48.81286795;9.14184224;2023-09-19T07:30:43;17.21;81.28
216;HTU21D;70668;48.81286795;9.14184224;2023-09-19T07:33:12;17.22;82.33
216;HTU21D;70668;48.81286795;9.14184224;2023-09-19T07:35:45;17.02;80.32
216;HTU21D;70668;48.81286795;9.14184224;2023-09-19T07:38:16;17.15;82.32
216;HTU21D;70668;48.81286795;9.14184224;2023-09-19T07:40:46;17.41;81.07
216;HTU21D;70668;48.81286795;9.14184224;2023-09-19T07:43:14;17.48;78.02
216;HTU21D;70668;48.81286795;9.14184224;2023-09-19T07:45:43;17.19;78.59
216;HTU21D;70668;48.81286795;9.14184224;2023-09-19T07:48:12;17.40;78.38
216;HTU21D;70668;48.81286795;9.14184224;2023-09-19T07:50:42;17.31;77.65
216;HTU21D;70668;48.81286795;9.14184224;2023-09-19T07:53:11;17.26;77.26
216;HTU21D;70668;48.81286795;9.14184224;2023-09-19T07:55:45;17.33;78.69
216;HTU21D;70668;48.81286795;9.14184224;2023-09-19T07:58:15;0.00;77.82
216;HTU21D;70668;48.81286795;9.14184224;2023-09-19T08:00:44;17.50;77.49
216;HTU21D;70668;48.81286795;9.14184224;2023-09-19T08:03:12;17.66;79.90
216;HTU21D;70668;48.81286795;9.14184224;2023-09-19T08:05:41;17.65;76.97
216;HTU21D;70668;48.81286795;9.14184224;2023-09-19T08:08:10;17.69;75.54
216;HTU21D;70668;48.81286795;9.14184224;2023-09-19T08:10:40;17.89;73.77
216;HTU21D;70668;48.81286795;9.14184224;2023-09-19T08:13:13;17.97;75.46
216;HTU21D;70668;48.81286795;9.14184224;2023-09-19T08:15:44;18.00;74.92
216;HTU21D;70668;48.81286795;9.14184224;2023-09-19T08:18:13;18.03;74.01
216;HTU21D;70668;48.81286795;9.14184224;2023-09-19T08:20:42;17.87;75.51
216;HTU21D;70668;48.81286795;9.14184224;2023-09-19T08:23:11;17.76;73.89
216;HTU21D;70668;48.81286795;9.14184224;2023-09-19T08:25:40;17.77;72.38
216;HTU21D;70668;48.81286795;9.14184224;2023-09-19T08:28:09;17.75;74.02
216;HTU21D;70668;48.81286795;9.14184224;2023-09-19T08:30:47;18.21;72.61
216;HTU21D;70668;48.81286795;9.14184224;2023-09-19T08:33:16;18.35;71.73
216;HTU21D;70668;48.81286795;9.14184224;2023-09-19T08:35:45;18.47;73.01
216;HTU21D;70668;48.81286795;9.14184224;2023-09-19T08:38:13;18.69;71.67
216;HTU21D;70668;48.81286795;9.14184224;2023-09-19T08:40:42;18.57;69.65
216;HTU21D;70668;48.81286795;9.14184224;2023-09-19T08:43:11;18.59;70.34
216;HTU21D;70668;48.81286795;9.14184224;2023-09-19T08:45:39;18.86;73.16
216;HTU21D;70668;48.81286795;9.14184224;2023-09-19T08:48:17;18.88;71.07
216;HTU21D;70668;48.81286795;9.14184224;2023-09-19T08:50:51;18.87;67.79
216;HTU21D;70668;48.81286795;9.14184224;2023-09-19T08:53:24;18.81;67.78
216;HTU21D;70668;48.81286795;9.14184224;2023-09-19T08:55:59;18.72;66.31
216;HTU21D;70668;48.81286795;9.14184224;2023-09-19T08:58:34;18.82;68.68
216;HTU21D;70668;48.81286795;9.14184224;2023-09-19T09:01:07;18.74;66.24
216;HTU21D;70668;48.81286795;9.14184224;2023-09-19T09:03:40;18.87;62.19
216;HTU21D;70668;48.81286795;9.14184224;2023-09-19T09:06:13;19.08;67.13
216;HTU21D;70668;48.81286795;9.14184224;2023-09-19T09:08:42;19.25;63.85
216;HTU21D;70668;48.81286795;9.14184224;2023-09-19T09:11:11;19.32;63.87
216;HTU21D;70668;48.81286795;9.14184224;2023-09-19T09:13:41;19.23;59.41
216;HTU21D;70668;48.81286795;9.14184224;2023-09-19T09:16:10;19.18;58.63
216;HTU21D;70668;48.81286795;9.14184224;2023-09-19T09:18:41;19.32;59.67
216;HTU21D;70668;48.81286795;9.14184224;2023-09-19T09:21:11;19.14;58.63
216;HTU21D;70668;48.81286795;9.14184224;2023-09-19T09:23:41;18.98;57.24
216;HTU21D;70668;48.81286795;9.14184224;2023-09-19T09:26:10;19.06;58.76
216;HTU21D;70668;48.81286795;9.14184224;2023-09-19T09:28:45;19.12;56.10
216;HTU21D;70668;48.81286795;9.14184224;2023-09-19T09:31:22;19.33;59.39
216;HTU21D;70668;48.81286795;9.14184224;2023-09-19T09:33:57;19.35;56.61
216;HTU21D;70668;48.81286795;9.14184224;2023-09-19T09:36:35;19.68;57.10
216;HTU21D;70668;48.81286795;9.14184224;2023-09-19T09:39:04;19.46;53.06
216;HTU21D;70668;48.81286795;9.14184224;2023-09-19T09:41:44;19.23;53.36
216;HTU21D;70668;48.81286795;9.14184224;2023-09-19T09:44:14;19.22;52.50
216;HTU21D;70668;48.81286795;9.14184224;2023-09-19T09:46:44;19.20;53.14
216;HTU21D;70668;48.81286795;9.14184224;2023-09-19T09:49:47;19.39;53.68
216;HTU21D;70668;48.81286795;9.14184224;2023-09-19T09:52:19;19.39;52.84
216;HTU21D;70668;48.81286795;9.14184224;2023-09-19T09:54:59;19.50;52.02
216;HTU21D;70668;48.81286795;9.14184224;2023-09-19T09:57:31;19.48;53.25
216;HTU21D;70668;48.81286795;9.14184224;2023-09-19T10:00:01;19.29;52.52
216;HTU21D;70668;48.81286795;9.14184224;2023-09-19T10:02:42;19.41;54.06
216;HTU21D;70668;48.81286795;9.14184224;2023-09-19T10:05:16;19.50;53.30
216;HTU21D;70668;48.81286795;9.14184224;2023-09-19T10:08:10;19.71;52.96
216;HTU21D;70668;48.81286795;9.14184224;2023-09-19T10:10:44;19.56;53.20
216;HTU21D;70668;48.81286795;9.14184224;2023-09-19T10:13:20;19.30;52.29
216;HTU21D;70668;48.81286795;9.14184224;2023-09-19T10:15:50;19.33;52.62
216;HTU21D;70668;48.81286795;9.14184224;2023-09-19T10:18:21;19.62;53.76
216;HTU21D;70668;48.81286795;9.14184224;2023-09-19T10:20:53;19.84;53.97
216;HTU21D;70668;48.81286795;9.14184224;2023-09-19T10:23:22;19.94;52.71
216;HTU21D;70668;48.81286795;9.14184224;2023-09-19T10:25:53;20.18;50.37
216;HTU21D;70668;48.81286795;9.14184224;2023-09-19T10:28:22;20.19;51.04
216;HTU21D;70668;48.81286795;9.14184224;2023-09-19T10:30:53;20.22;49.89
216;HTU21D;70668;48.81286795;9.14184224;2023-09-19T10:33:23;20.26;50.08
216;HTU21D;70668;48.81286795;9.14184224;2023-09-19T10:35:57;20.42;48.10
216;HTU21D;70668;48.81286795;9.14184224;2023-09-19T10:38:27;20.55;49.27
216;HTU21D;70668;48.81286795;9.14184224;2023-09-19T10:40:59;20.61;46.50
216;HTU21D;70668;48.81286795;9.14184224;2023-09-19T10:43:30;20.44;46.15
216;HTU21D;70668;48.81286795;9.14184224;2023-09-19T10:46:03;20.54;46.28
216;HTU21D;70668;48.81286795;9.14184224;2023-09-19T10:48:32;20.45;45.91
216;HTU21D;70668;48.81286795;9.14184224;2023-09-19T10:51:07;20.50;47.05
216;HTU21D;70668;48.81286795;9.14184224;2023-09-19T10:53:43;20.68;46.90
216;HTU21D;70668;48.81286795;9.14184224;2023-09-19T10:56:19;20.74;46.86
216;HTU21D;70668;48.81286795;9.14184224;2023-09-19T10:58:50;21.10;46.35
216;HTU21D;70668;48.81286795;9.14184224;2023-09-19T11:01:19;20.92;45.64
216;HTU21D;70668;48.81286795;9.14184224;2023-09-19T11:04:23;21.01;44.84
216;HTU21D;70668;48.81286795;9.14184224;2023-09-19T11:07:10;20.96;44.14
216;HTU21D;70668;48.81286795;9.14184224;2023-09-19T11:09:48;20.77;43.83
216;HTU21D;70668;48.81286795;9.14184224;2023-09-19T11:12:49;20.79;43.94
216;HTU21D;70668;48.81286795;9.14184224;2023-09-19T11:24:34;21.36;42.77
216;HTU21D;70668;48.81286795;9.14184224;2023-09-19T11:27:13;21.59;41.39
216;HTU21D;70668;48.81286795;9.14184224;2023-09-19T11:29:44;21.53;42.03
216;HTU21D;70668;48.81286795;9.14184224;2023-09-19T11:32:14;21.87;41.05
216;HTU21D;70668;48.81286795;9.14184224;2023-09-19T11:34:48;22.25;41.03
216;HTU21D;70668;48.81286795;9.14184224;2023-09-19T11:40:47;22.64;38.65
216;HTU21D;70668;48.81286795;9.14184224;2023-09-19T11:43:32;22.44;37.71
216;HTU21D;70668;48.81286795;9.14184224;2023-09-19T11:46:06;22.50;38.75
216;HTU21D;70668;48.81286795;9.14184224;2023-09-19T11:48:32;22.49;36.76
216;HTU21D;70668;48.81286795;9.14184224;2023-09-19T11:51:11;22.82;37.52
216;HTU21D;70668;48.81286795;9.14184224;2023-09-19T11:53:45;23.14;36.66
216;HTU21D;70668;48.81286795;9.14184224;2023-09-19T11:56:21;23.42;37.29
216;HTU21D;70668;48.81286795;9.14184224;2023-09-19T11:58:54;23.74;36.50
216;HTU21D;70668;48.81286795;9.14184224;2023-09-19T12:01:28;23.69;35.54
216;HTU21D;70668;48.81286795;9.14184224;2023-09-19T12:03:58;23.91;35.15
216;HTU21D;70668;48.81286795;9.14184224;2023-09-19T12:06:29;23.91;34.73
216;HTU21D;70668;48.81286795;9.14184224;2023-09-19T12:08:58;24.10;34.21
216;HTU21D;70668;48.81286795;9.14184224;2023-09-19T12:11:41;23.66;34.52
216;HTU21D;70668;48.81286795;9.14184224;2023-09-19T12:14:10;23.92;34.41
216;HTU21D;70668;48.81286795;9.14184224;2023-09-19T12:16:39;23.88;34.71
216;HTU21D;70668;48.81286795;9.14184224;2023-09-19T12:19:23;24.51;34.51
216;HTU21D;70668;48.81286795;9.14184224;2023-09-19T12:21:55;24.72;34.28
216;HTU21D;70668;48.81286795;9.14184224;2023-09-19T12:24:26;24.25;35.05
216;HTU21D;70668;48.81286795;9.14184224;2023-09-19T12:27:00;24.60;35.24
216;HTU21D;70668;48.81286795;9.14184224;2023-09-19T12:29:31;24.68;35.68
216;HTU21D;70668;48.81286795;9.14184224;2023-09-19T12:32:02;25.49;34.71
216;HTU21D;70668;48.81286795;9.14184224;2023-09-19T12:34:32;24.94;33.57
216;HTU21D;70668;48.81286795;9.14184224;2023-09-19T12:37:09;25.57;33.31
216;HTU21D;70668;48.81286795;9.14184224;2023-09-19T12:39:43;25.02;34.23
216;HTU21D;70668;48.81286795;9.14184224;2023-09-19T12:42:18;25.05;33.85
216;HTU21D;70668;48.81286795;9.14184224;2023-09-19T12:44:49;23.44;37.17
216;HTU21D;70668;48.81286795;9.14184224;2023-09-19T12:47:23;23.32;36.92
216;HTU21D;70668;48.81286795;9.14184224;2023-09-19T12:50:08;23.29;38.83
216;HTU21D;70668;48.81286795;9.14184224;2023-09-19T12:52:44;22.97;38.98
216;HTU21D;70668;48.81286795;9.14184224;2023-09-19T12:55:22;22.69;38.17
216;HTU21D;70668;48.81286795;9.14184224;2023-09-19T12:58:03;22.50;39.29
216;HTU21D;70668;48.81286795;9.14184224;2023-09-19T13:00:36;22.14;39.87
216;HTU21D;70668;48.81286795;9.14184224;2023-09-19T13:03:13;22.25;39.17
216;HTU21D;70668;48.81286795;9.14184224;2023-09-19T13:05:51;22.17;40.28
216;HTU21D;70668;48.81286795;9.14184224;2023-09-19T13:08:25;22.39;39.38
216;HTU21D;70668;48.81286795;9.14184224;2023-09-19T13:11:05;22.96;37.19
216;HTU21D;70668;48.81286795;9.14184224;2023-09-19T13:13:39;22.78;37.40
216;HTU21D;70668;48.81286795;9.14184224;2023-09-19T13:16:09;22.56;39.14
216;HTU21D;70668;48.81286795;9.14184224;2023-09-19T13:18:48;22.60;38.72
216;HTU21D;70668;48.81286795;9.14184224;2023-09-19T13:21:27;22.43;39.80
216;HTU21D;70668;48.81286795;9.14184224;2023-09-19T13:24:18;22.44;40.32
216;HTU21D;70668;48.81286795;9.14184224;2023-09-19T13:26:48;22.47;39.68
216;HTU21D;70668;48.81286795;9.14184224;2023-09-19T13:29:19;22.17;40.62
216;HTU21D;70668;48.81286795;9.14184224;2023-09-19T13:31:48;22.09;40.41
216;HTU21D;70668;48.81286795;9.14184224;2023-09-19T13:34:19;22.21;41.08
216;HTU21D;70668;48.81286795;9.14184224;2023-09-19T13:36:47;22.11;41.78
216;HTU21D;70668;48.81286795;9.14184224;2023-09-19T13:39:16;22.33;41.25
216;HTU21D;70668;48.81286795;9.14184224;2023-09-19T13:41:46;22.39;40.79
216;HTU21D;70668;48.81286795;9.14184224;2023-09-19T13:44:15;22.34;40.44
216;HTU21D;70668;48.81286795;9.14184224;2023-09-19T13:46:47;22.20;41.24
216;HTU21D;70668;48.81286795;9.14184224;2023-09-19T13:49:16;22.39;40.93
216;HTU21D;70668;48.81286795;9.14184224;2023-09-19T13:51:46;22.43;40.59
216;HTU21D;70668;48.81286795;9.14184224;2023-09-19T13:54:15;22.54;41.69
216;HTU21D;70668;48.81286795;9.14184224;2023-09-19T13:56:44;22.51;40.77
216;HTU21D;70668;48.81286795;9.14184224;2023-09-19T13:59:13;0.00;41.07
216;HTU21D;70668;48.81286795;9.14184224;2023-09-19T14:01:42;22.28;41.01
216;HTU21D;70668;48.81286795;9.14184224;2023-09-19T14:04:14;22.38;40.62
216;HTU21D;70668;48.81286795;9.14184224;2023-09-19T14:06:44;22.47;42.61
216;HTU21D;70668;48.81286795;9.14184224;2023-09-19T14:09:12;22.62;40.65
216;HTU21D;70668;48.81286795;9.14184224;2023-09-19T14:11:42;22.63;40.67
216;HTU21D;70668;48.81286795;9.14184224;2023-09-19T14:14:12;22.82;40.96
216;HTU21D;70668;48.81286795;9.14184224;2023-09-19T14:16:41;22.76;40.25